sensor_id;sensor_type;location;lat;lon;timestamp;P1;durP1;ratioP1;P2;durP2;ratioP2
16828;SDS011;8531;48.078;11.968;2023-02-11T00:00:11;27.77;;;17.33;;
16828;SDS011;8531;48.078;11.968;2023-02-11T00:02:38;26.43;;;17.37;;
16828;SDS011;8531;48.078;11.968;2023-02-11T00:05:04;27.97;;;16.93;;
16828;SDS011;8531;48.078;11.968;2023-02-11T00:07:30;26.93;;;17.43;;
16828;SDS011;8531;48.078;11.968;2023-02-11T00:09:57;27.73;;;17.53;;
16828;SDS011;8531;48.078;11.968;2023-02-11T00:12:23;28.03;;;17.57;;
16828;SDS011;8531;48.078;11.968;2023-02-11T00:14:49;29.77;;;18.10;;
16828;SDS011;8531;48.078;11.968;2023-02-11T00:17:14;26.37;;;16.37;;
16828;SDS011;8531;48.078;11.968;2023-02-11T00:19:41;30.17;;;18.23;;
16828;SDS011;8531;48.078;11.968;2023-02-11T00:22:06;24.67;;;16.53;;
16828;SDS011;8531;48.078;11.968;2023-02-11T00:24:32;24.97;;;16.50;;
16828;SDS011;8531;48.078;11.968;2023-02-11T00:26:58;28.20;;;17.17;;
16828;SDS011;8531;48.078;11.968;2023-02-11T00:29:24;25.50;;;17.33;;
16828;SDS011;8531;48.078;11.968;2023-02-11T00:31:49;29.77;;;16.57;;
16828;SDS011;8531;48.078;11.968;2023-02-11T00:34:15;28.03;;;16.43;;
16828;SDS011;8531;48.078;11.968;2023-02-11T00:36:41;25.03;;;15.60;;
16828;SDS011;8531;48.078;11.968;2023-02-11T00:39:06;24.13;;;15.37;;
16828;SDS011;8531;48.078;11.968;2023-02-11T00:41:32;27.40;;;17.47;;
16828;SDS011;8531;48.078;11.968;2023-02-11T00:43:58;26.03;;;16.60;;
16828;SDS011;8531;48.078;11.968;2023-02-11T00:46:25;24.63;;;15.40;;
16828;SDS011;8531;48.078;11.968;2023-02-11T00:48:50;24.27;;;15.30;;
16828;SDS011;8531;48.078;11.968;2023-02-11T00:51:19;24.53;;;15.63;;
16828;SDS011;8531;48.078;11.968;2023-02-11T00:53:44;22.83;;;15.07;;
16828;SDS011;8531;48.078;11.968;2023-02-11T00:56:10;21.27;;;13.93;;
16828;SDS011;8531;48.078;11.968;2023-02-11T00:58:36;27.03;;;15.10;;
16828;SDS011;8531;48.078;11.968;2023-02-11T01:01:02;21.07;;;14.63;;
16828;SDS011;8531;48.078;11.968;2023-02-11T01:03:28;22.47;;;14.33;;
16828;SDS011;8531;48.078;11.968;2023-02-11T01:05:54;19.73;;;13.63;;
16828;SDS011;8531;48.078;11.968;2023-02-11T01:08:20;22.70;;;13.30;;
16828;SDS011;8531;48.078;11.968;2023-02-11T01:10:52;22.27;;;13.27;;
16828;SDS011;8531;48.078;11.968;2023-02-11T01:13:19;19.10;;;12.50;;
16828;SDS011;8531;48.078;11.968;2023-02-11T01:15:44;21.53;;;13.10;;
16828;SDS011;8531;48.078;11.968;2023-02-11T01:18:10;20.17;;;13.33;;
16828;SDS011;8531;48.078;11.968;2023-02-11T01:20:36;18.97;;;12.50;;
16828;SDS011;8531;48.078;11.968;2023-02-11T01:23:01;19.57;;;12.47;;
16828;SDS011;8531;48.078;11.968;2023-02-11T01:25:27;21.70;;;13.07;;
16828;SDS011;8531;48.078;11.968;2023-02-11T01:27:53;20.73;;;13.10;;
16828;SDS011;8531;48.078;11.968;2023-02-11T01:30:18;19.57;;;12.73;;
16828;SDS011;8531;48.078;11.968;2023-02-11T01:32:44;18.93;;;12.60;;
16828;SDS011;8531;48.078;11.968;2023-02-11T01:35:10;19.23;;;13.00;;
16828;SDS011;8531;48.078;11.968;2023-02-11T01:37:35;19.67;;;12.93;;
16828;SDS011;8531;48.078;11.968;2023-02-11T01:40:02;23.53;;;13.67;;
16828;SDS011;8531;48.078;11.968;2023-02-11T01:42:29;20.37;;;12.93;;
16828;SDS011;8531;48.078;11.968;2023-02-11T01:44:56;18.70;;;11.73;;
16828;SDS011;8531;48.078;11.968;2023-02-11T01:47:21;19.77;;;12.77;;
16828;SDS011;8531;48.078;11.968;2023-02-11T01:50:05;20.20;;;12.87;;
16828;SDS011;8531;48.078;11.968;2023-02-11T01:52:32;19.73;;;12.10;;
16828;SDS011;8531;48.078;11.968;2023-02-11T01:55:02;21.20;;;13.47;;
16828;SDS011;8531;48.078;11.968;2023-02-11T01:57:50;19.83;;;12.83;;
16828;SDS011;8531;48.078;11.968;2023-02-11T02:00:21;20.20;;;12.83;;
16828;SDS011;8531;48.078;11.968;2023-02-11T02:11:04;17.00;;;11.90;;
16828;SDS011;8531;48.078;11.968;2023-02-11T02:13:31;17.23;;;10.80;;
16828;SDS011;8531;48.078;11.968;2023-02-11T02:15:59;17.93;;;11.13;;
16828;SDS011;8531;48.078;11.968;2023-02-11T02:18:35;18.93;;;12.07;;
16828;SDS011;8531;48.078;11.968;2023-02-11T02:26:13;18.97;;;12.00;;
16828;SDS011;8531;48.078;11.968;2023-02-11T02:37:36;19.40;;;12.23;;
16828;SDS011;8531;48.078;11.968;2023-02-11T02:40:11;14.47;;;9.87;;
16828;SDS011;8531;48.078;11.968;2023-02-11T02:42:58;16.43;;;9.87;;
16828;SDS011;8531;48.078;11.968;2023-02-11T02:45:26;14.90;;;9.80;;
16828;SDS011;8531;48.078;11.968;2023-02-11T02:47:51;15.53;;;9.93;;
16828;SDS011;8531;48.078;11.968;2023-02-11T02:50:19;15.00;;;9.60;;
16828;SDS011;8531;48.078;11.968;2023-02-11T02:53:10;15.17;;;9.23;;
16828;SDS011;8531;48.078;11.968;2023-02-11T02:55:48;14.63;;;8.43;;
16828;SDS011;8531;48.078;11.968;2023-02-11T03:01:15;13.07;;;8.77;;
16828;SDS011;8531;48.078;11.968;2023-02-11T03:04:02;13.60;;;8.53;;
16828;SDS011;8531;48.078;11.968;2023-02-11T03:06:52;12.77;;;8.53;;
16828;SDS011;8531;48.078;11.968;2023-02-11T03:12:11;15.40;;;8.47;;
16828;SDS011;8531;48.078;11.968;2023-02-11T03:14:38;13.03;;;8.23;;
16828;SDS011;8531;48.078;11.968;2023-02-11T03:17:05;12.97;;;8.10;;
16828;SDS011;8531;48.078;11.968;2023-02-11T03:19:35;13.03;;;7.97;;
16828;SDS011;8531;48.078;11.968;2023-02-11T03:22:06;13.23;;;8.80;;
16828;SDS011;8531;48.078;11.968;2023-02-11T03:24:46;12.60;;;7.77;;
16828;SDS011;8531;48.078;11.968;2023-02-11T03:27:29;12.33;;;8.17;;
16828;SDS011;8531;48.078;11.968;2023-02-11T03:30:05;14.43;;;8.90;;
16828;SDS011;8531;48.078;11.968;2023-02-11T03:33:07;13.07;;;8.10;;
16828;SDS011;8531;48.078;11.968;2023-02-11T03:35:46;14.93;;;8.50;;
16828;SDS011;8531;48.078;11.968;2023-02-11T03:38:33;13.03;;;8.43;;
16828;SDS011;8531;48.078;11.968;2023-02-11T03:41:02;11.37;;;8.00;;
16828;SDS011;8531;48.078;11.968;2023-02-11T03:43:32;12.63;;;7.97;;
16828;SDS011;8531;48.078;11.968;2023-02-11T03:46:20;11.87;;;8.23;;
16828;SDS011;8531;48.078;11.968;2023-02-11T03:48:50;12.87;;;8.30;;
16828;SDS011;8531;48.078;11.968;2023-02-11T03:51:20;16.30;;;8.30;;
16828;SDS011;8531;48.078;11.968;2023-02-11T03:53:48;11.07;;;8.03;;
16828;SDS011;8531;48.078;11.968;2023-02-11T03:56:18;13.60;;;8.43;;
16828;SDS011;8531;48.078;11.968;2023-02-11T03:58:47;12.07;;;7.57;;
16828;SDS011;8531;48.078;11.968;2023-02-11T04:01:13;13.37;;;8.63;;
16828;SDS011;8531;48.078;11.968;2023-02-11T04:03:40;14.43;;;8.60;;
16828;SDS011;8531;48.078;11.968;2023-02-11T04:06:06;11.47;;;7.87;;
16828;SDS011;8531;48.078;11.968;2023-02-11T04:08:32;14.20;;;8.90;;
16828;SDS011;8531;48.078;11.968;2023-02-11T04:10:57;15.50;;;9.13;;
16828;SDS011;8531;48.078;11.968;2023-02-11T04:13:23;13.00;;;8.93;;
16828;SDS011;8531;48.078;11.968;2023-02-11T04:15:49;15.53;;;8.83;;
16828;SDS011;8531;48.078;11.968;2023-02-11T04:18:15;15.93;;;9.33;;
16828;SDS011;8531;48.078;11.968;2023-02-11T04:20:40;13.67;;;9.10;;
16828;SDS011;8531;48.078;11.968;2023-02-11T04:23:06;13.47;;;8.57;;
16828;SDS011;8531;48.078;11.968;2023-02-11T04:25:32;12.90;;;7.73;;
16828;SDS011;8531;48.078;11.968;2023-02-11T04:27:57;11.27;;;7.73;;
16828;SDS011;8531;48.078;11.968;2023-02-11T04:30:23;10.87;;;7.63;;
16828;SDS011;8531;48.078;11.968;2023-02-11T04:32:49;13.30;;;8.00;;
16828;SDS011;8531;48.078;11.968;2023-02-11T04:35:15;11.40;;;8.30;;
16828;SDS011;8531;48.078;11.968;2023-02-11T04:37:40;11.20;;;7.67;;
16828;SDS011;8531;48.078;11.968;2023-02-11T04:40:06;11.17;;;7.23;;
16828;SDS011;8531;48.078;11.968;2023-02-11T04:42:32;13.33;;;8.77;;
16828;SDS011;8531;48.078;11.968;2023-02-11T04:44:58;9.73;;;6.30;;
16828;SDS011;8531;48.078;11.968;2023-02-11T04:47:23;13.83;;;7.50;;
16828;SDS011;8531;48.078;11.968;2023-02-11T04:49:49;9.83;;;7.07;;
16828;SDS011;8531;48.078;11.968;2023-02-11T04:52:15;12.00;;;7.40;;
16828;SDS011;8531;48.078;11.968;2023-02-11T04:54:40;8.73;;;7.07;;
16828;SDS011;8531;48.078;11.968;2023-02-11T04:57:06;9.70;;;6.97;;
16828;SDS011;8531;48.078;11.968;2023-02-11T04:59:32;10.50;;;6.80;;
16828;SDS011;8531;48.078;11.968;2023-02-11T05:01:57;10.33;;;6.73;;
16828;SDS011;8531;48.078;11.968;2023-02-11T05:04:23;9.63;;;6.63;;
16828;SDS011;8531;48.078;11.968;2023-02-11T05:06:49;10.83;;;7.23;;
16828;SDS011;8531;48.078;11.968;2023-02-11T05:09:15;11.17;;;7.27;;
16828;SDS011;8531;48.078;11.968;2023-02-11T05:11:40;9.60;;;6.90;;
16828;SDS011;8531;48.078;11.968;2023-02-11T05:14:06;12.33;;;7.37;;
16828;SDS011;8531;48.078;11.968;2023-02-11T05:16:32;10.47;;;6.17;;
16828;SDS011;8531;48.078;11.968;2023-02-11T05:18:58;9.20;;;6.57;;
16828;SDS011;8531;48.078;11.968;2023-02-11T05:21:23;11.80;;;7.30;;
16828;SDS011;8531;48.078;11.968;2023-02-11T05:23:49;11.07;;;7.77;;
16828;SDS011;8531;48.078;11.968;2023-02-11T05:26:15;12.47;;;6.90;;
16828;SDS011;8531;48.078;11.968;2023-02-11T05:28:42;10.47;;;7.10;;
16828;SDS011;8531;48.078;11.968;2023-02-11T05:31:08;10.33;;;6.73;;
16828;SDS011;8531;48.078;11.968;2023-02-11T05:33:34;26.27;;;16.97;;
16828;SDS011;8531;48.078;11.968;2023-02-11T05:36:00;11.50;;;8.07;;
16828;SDS011;8531;48.078;11.968;2023-02-11T05:38:27;10.93;;;6.53;;
16828;SDS011;8531;48.078;11.968;2023-02-11T05:40:53;10.87;;;6.80;;
16828;SDS011;8531;48.078;11.968;2023-02-11T05:43:18;10.43;;;6.33;;
16828;SDS011;8531;48.078;11.968;2023-02-11T05:45:44;10.20;;;6.60;;
16828;SDS011;8531;48.078;11.968;2023-02-11T05:48:10;11.67;;;6.73;;
16828;SDS011;8531;48.078;11.968;2023-02-11T05:50:35;10.53;;;7.00;;
16828;SDS011;8531;48.078;11.968;2023-02-11T05:53:01;8.63;;;6.60;;
16828;SDS011;8531;48.078;11.968;2023-02-11T05:55:27;10.90;;;6.53;;
16828;SDS011;8531;48.078;11.968;2023-02-11T05:57:52;9.30;;;6.60;;
16828;SDS011;8531;48.078;11.968;2023-02-11T06:00:18;10.63;;;6.93;;
16828;SDS011;8531;48.078;11.968;2023-02-11T06:02:44;10.23;;;6.80;;
16828;SDS011;8531;48.078;11.968;2023-02-11T06:05:09;11.07;;;7.00;;
16828;SDS011;8531;48.078;11.968;2023-02-11T06:07:35;9.83;;;6.77;;
16828;SDS011;8531;48.078;11.968;2023-02-11T06:10:01;10.63;;;6.63;;
16828;SDS011;8531;48.078;11.968;2023-02-11T06:12:26;9.87;;;6.27;;
16828;SDS011;8531;48.078;11.968;2023-02-11T06:14:52;11.30;;;6.60;;
16828;SDS011;8531;48.078;11.968;2023-02-11T06:17:18;12.33;;;8.67;;
16828;SDS011;8531;48.078;11.968;2023-02-11T06:19:43;15.73;;;9.63;;
16828;SDS011;8531;48.078;11.968;2023-02-11T06:22:09;15.43;;;11.77;;
16828;SDS011;8531;48.078;11.968;2023-02-11T06:24:35;18.00;;;13.57;;
16828;SDS011;8531;48.078;11.968;2023-02-11T06:27:02;22.67;;;17.33;;
16828;SDS011;8531;48.078;11.968;2023-02-11T06:29:28;16.67;;;12.20;;
16828;SDS011;8531;48.078;11.968;2023-02-11T06:31:54;13.57;;;9.17;;
16828;SDS011;8531;48.078;11.968;2023-02-11T06:34:20;10.73;;;7.20;;
16828;SDS011;8531;48.078;11.968;2023-02-11T06:36:45;12.73;;;7.90;;
16828;SDS011;8531;48.078;11.968;2023-02-11T06:39:11;11.07;;;7.70;;
16828;SDS011;8531;48.078;11.968;2023-02-11T06:41:38;14.03;;;7.90;;
16828;SDS011;8531;48.078;11.968;2023-02-11T06:44:03;11.93;;;6.73;;
16828;SDS011;8531;48.078;11.968;2023-02-11T06:46:30;11.77;;;6.67;;
16828;SDS011;8531;48.078;11.968;2023-02-11T06:48:56;12.50;;;7.47;;
16828;SDS011;8531;48.078;11.968;2023-02-11T06:51:21;11.70;;;8.07;;
16828;SDS011;8531;48.078;11.968;2023-02-11T06:53:47;10.77;;;7.50;;
16828;SDS011;8531;48.078;11.968;2023-02-11T06:56:14;10.30;;;7.43;;
16828;SDS011;8531;48.078;11.968;2023-02-11T06:58:41;9.93;;;8.20;;
16828;SDS011;8531;48.078;11.968;2023-02-11T07:01:08;12.33;;;7.53;;
16828;SDS011;8531;48.078;11.968;2023-02-11T07:03:39;10.23;;;6.87;;
16828;SDS011;8531;48.078;11.968;2023-02-11T07:06:09;12.23;;;6.50;;
16828;SDS011;8531;48.078;11.968;2023-02-11T07:08:37;10.23;;;6.33;;
16828;SDS011;8531;48.078;11.968;2023-02-11T07:11:10;10.97;;;6.40;;
16828;SDS011;8531;48.078;11.968;2023-02-11T07:13:43;11.53;;;7.63;;
16828;SDS011;8531;48.078;11.968;2023-02-11T07:16:11;9.97;;;6.97;;
16828;SDS011;8531;48.078;11.968;2023-02-11T07:18:39;9.57;;;6.60;;
16828;SDS011;8531;48.078;11.968;2023-02-11T07:21:05;10.17;;;6.80;;
16828;SDS011;8531;48.078;11.968;2023-02-11T07:23:32;12.83;;;6.93;;
16828;SDS011;8531;48.078;11.968;2023-02-11T07:26:02;10.17;;;6.93;;
16828;SDS011;8531;48.078;11.968;2023-02-11T07:28:29;11.30;;;7.53;;
16828;SDS011;8531;48.078;11.968;2023-02-11T07:30:54;10.77;;;7.77;;
16828;SDS011;8531;48.078;11.968;2023-02-11T07:33:20;12.37;;;8.10;;
16828;SDS011;8531;48.078;11.968;2023-02-11T07:35:46;12.70;;;8.17;;
16828;SDS011;8531;48.078;11.968;2023-02-11T07:38:12;12.63;;;7.97;;
16828;SDS011;8531;48.078;11.968;2023-02-11T07:40:38;18.47;;;8.90;;
16828;SDS011;8531;48.078;11.968;2023-02-11T07:43:03;8.97;;;7.27;;
16828;SDS011;8531;48.078;11.968;2023-02-11T07:45:29;10.63;;;6.77;;
16828;SDS011;8531;48.078;11.968;2023-02-11T07:47:55;12.37;;;8.23;;
16828;SDS011;8531;48.078;11.968;2023-02-11T07:50:20;24.43;;;14.20;;
16828;SDS011;8531;48.078;11.968;2023-02-11T07:52:46;18.47;;;11.17;;
16828;SDS011;8531;48.078;11.968;2023-02-11T07:55:12;13.50;;;8.47;;
16828;SDS011;8531;48.078;11.968;2023-02-11T07:57:37;12.63;;;8.33;;
16828;SDS011;8531;48.078;11.968;2023-02-11T08:00:04;11.17;;;7.13;;
16828;SDS011;8531;48.078;11.968;2023-02-11T08:02:30;18.50;;;7.37;;
16828;SDS011;8531;48.078;11.968;2023-02-11T08:04:56;19.30;;;7.20;;
16828;SDS011;8531;48.078;11.968;2023-02-11T08:07:21;10.37;;;6.07;;
16828;SDS011;8531;48.078;11.968;2023-02-11T08:09:47;11.87;;;7.10;;
16828;SDS011;8531;48.078;11.968;2023-02-11T08:12:13;12.77;;;7.20;;
16828;SDS011;8531;48.078;11.968;2023-02-11T08:14:38;12.67;;;7.93;;
16828;SDS011;8531;48.078;11.968;2023-02-11T08:17:04;16.97;;;10.93;;
16828;SDS011;8531;48.078;11.968;2023-02-11T08:19:29;14.70;;;7.80;;
16828;SDS011;8531;48.078;11.968;2023-02-11T08:21:55;11.83;;;7.57;;
16828;SDS011;8531;48.078;11.968;2023-02-11T08:24:23;10.23;;;7.13;;
16828;SDS011;8531;48.078;11.968;2023-02-11T08:26:49;10.07;;;6.87;;
16828;SDS011;8531;48.078;11.968;2023-02-11T08:29:15;11.23;;;6.57;;
16828;SDS011;8531;48.078;11.968;2023-02-11T08:31:42;9.17;;;6.57;;
16828;SDS011;8531;48.078;11.968;2023-02-11T08:34:10;12.77;;;7.10;;
16828;SDS011;8531;48.078;11.968;2023-02-11T08:36:38;14.37;;;7.17;;
16828;SDS011;8531;48.078;11.968;2023-02-11T08:39:07;14.27;;;7.10;;
16828;SDS011;8531;48.078;11.968;2023-02-11T08:41:37;14.07;;;8.33;;
16828;SDS011;8531;48.078;11.968;2023-02-11T08:44:03;13.87;;;7.17;;
16828;SDS011;8531;48.078;11.968;2023-02-11T08:46:28;21.20;;;9.20;;
16828;SDS011;8531;48.078;11.968;2023-02-11T08:48:54;49.07;;;11.13;;
16828;SDS011;8531;48.078;11.968;2023-02-11T08:51:24;17.00;;;6.27;;
16828;SDS011;8531;48.078;11.968;2023-02-11T08:53:52;19.67;;;6.70;;
16828;SDS011;8531;48.078;11.968;2023-02-11T08:56:19;10.10;;;5.80;;
16828;SDS011;8531;48.078;11.968;2023-02-11T08:58:46;9.77;;;5.37;;
16828;SDS011;8531;48.078;11.968;2023-02-11T09:01:15;11.50;;;5.30;;
16828;SDS011;8531;48.078;11.968;2023-02-11T09:03:49;10.80;;;5.63;;
16828;SDS011;8531;48.078;11.968;2023-02-11T09:06:15;14.63;;;5.87;;
16828;SDS011;8531;48.078;11.968;2023-02-11T09:08:43;10.97;;;6.17;;
16828;SDS011;8531;48.078;11.968;2023-02-11T09:11:11;13.07;;;6.20;;
16828;SDS011;8531;48.078;11.968;2023-02-11T09:13:38;9.07;;;6.30;;
16828;SDS011;8531;48.078;11.968;2023-02-11T09:16:05;10.13;;;6.37;;
16828;SDS011;8531;48.078;11.968;2023-02-11T09:18:31;7.07;;;5.17;;
16828;SDS011;8531;48.078;11.968;2023-02-11T09:21:01;9.87;;;5.40;;
16828;SDS011;8531;48.078;11.968;2023-02-11T09:23:31;12.17;;;6.30;;
16828;SDS011;8531;48.078;11.968;2023-02-11T09:25:59;7.70;;;5.30;;
16828;SDS011;8531;48.078;11.968;2023-02-11T09:28:29;10.27;;;5.63;;
16828;SDS011;8531;48.078;11.968;2023-02-11T09:30:55;9.60;;;5.63;;
16828;SDS011;8531;48.078;11.968;2023-02-11T09:33:21;7.90;;;5.47;;
16828;SDS011;8531;48.078;11.968;2023-02-11T09:35:48;9.13;;;5.53;;
16828;SDS011;8531;48.078;11.968;2023-02-11T09:38:13;8.97;;;5.50;;
16828;SDS011;8531;48.078;11.968;2023-02-11T09:40:42;9.10;;;5.80;;
16828;SDS011;8531;48.078;11.968;2023-02-11T09:43:19;28.73;;;6.87;;
16828;SDS011;8531;48.078;11.968;2023-02-11T09:45:52;15.73;;;6.70;;
16828;SDS011;8531;48.078;11.968;2023-02-11T09:48:20;24.63;;;8.00;;
16828;SDS011;8531;48.078;11.968;2023-02-11T09:50:48;26.17;;;7.47;;
16828;SDS011;8531;48.078;11.968;2023-02-11T09:53:23;14.10;;;6.40;;
16828;SDS011;8531;48.078;11.968;2023-02-11T09:55:58;13.40;;;6.87;;
16828;SDS011;8531;48.078;11.968;2023-02-11T09:58:26;14.83;;;6.63;;
16828;SDS011;8531;48.078;11.968;2023-02-11T10:06:38;11.63;;;7.60;;
16828;SDS011;8531;48.078;11.968;2023-02-11T10:09:14;14.40;;;7.37;;
16828;SDS011;8531;48.078;11.968;2023-02-11T10:14:22;10.73;;;7.00;;
16828;SDS011;8531;48.078;11.968;2023-02-11T10:22:41;16.67;;;7.60;;
16828;SDS011;8531;48.078;11.968;2023-02-11T10:25:20;12.97;;;6.57;;
16828;SDS011;8531;48.078;11.968;2023-02-11T10:27:58;11.23;;;7.17;;
16828;SDS011;8531;48.078;11.968;2023-02-11T10:30:36;12.50;;;7.40;;
16828;SDS011;8531;48.078;11.968;2023-02-11T10:33:14;15.23;;;6.82;;
16828;SDS011;8531;48.078;11.968;2023-02-11T10:35:52;17.45;;;7.05;;
16828;SDS011;8531;48.078;11.968;2023-02-11T10:38:17;10.52;;;7.00;;
16828;SDS011;8531;48.078;11.968;2023-02-11T10:40:43;9.50;;;7.07;;
16828;SDS011;8531;48.078;11.968;2023-02-11T10:43:10;9.43;;;6.43;;
16828;SDS011;8531;48.078;11.968;2023-02-11T10:45:52;9.77;;;5.78;;
16828;SDS011;8531;48.078;11.968;2023-02-11T10:48:36;9.20;;;5.60;;
16828;SDS011;8531;48.078;11.968;2023-02-11T10:53:32;21.30;;;6.88;;
16828;SDS011;8531;48.078;11.968;2023-02-11T10:56:00;10.13;;;5.43;;
16828;SDS011;8531;48.078;11.968;2023-02-11T10:58:29;13.27;;;5.43;;
16828;SDS011;8531;48.078;11.968;2023-02-11T11:01:10;8.40;;;4.53;;
16828;SDS011;8531;48.078;11.968;2023-02-11T11:03:47;8.30;;;5.20;;
16828;SDS011;8531;48.078;11.968;2023-02-11T11:06:14;9.35;;;4.68;;
16828;SDS011;8531;48.078;11.968;2023-02-11T11:11:07;8.23;;;4.22;;
16828;SDS011;8531;48.078;11.968;2023-02-11T11:13:35;9.50;;;4.60;;
16828;SDS011;8531;48.078;11.968;2023-02-11T11:18:43;10.88;;;4.68;;
16828;SDS011;8531;48.078;11.968;2023-02-11T11:21:21;8.93;;;5.53;;
16828;SDS011;8531;48.078;11.968;2023-02-11T11:23:53;11.00;;;4.68;;
16828;SDS011;8531;48.078;11.968;2023-02-11T11:26:21;6.88;;;4.55;;
16828;SDS011;8531;48.078;11.968;2023-02-11T11:31:17;14.38;;;5.47;;
16828;SDS011;8531;48.078;11.968;2023-02-11T11:33:54;6.15;;;3.67;;
16828;SDS011;8531;48.078;11.968;2023-02-11T11:36:31;7.70;;;5.20;;
16828;SDS011;8531;48.078;11.968;2023-02-11T11:39:03;16.95;;;5.53;;
16828;SDS011;8531;48.078;11.968;2023-02-11T11:41:52;9.13;;;5.53;;
16828;SDS011;8531;48.078;11.968;2023-02-11T11:44:30;9.45;;;4.70;;
16828;SDS011;8531;48.078;11.968;2023-02-11T11:47:20;10.18;;;5.20;;
16828;SDS011;8531;48.078;11.968;2023-02-11T11:52:57;9.18;;;5.57;;
16828;SDS011;8531;48.078;11.968;2023-02-11T11:58:09;8.80;;;5.25;;
16828;SDS011;8531;48.078;11.968;2023-02-11T12:00:51;10.15;;;5.22;;
16828;SDS011;8531;48.078;11.968;2023-02-11T12:19:31;10.63;;;4.72;;
16828;SDS011;8531;48.078;11.968;2023-02-11T12:22:40;6.45;;;4.50;;
16828;SDS011;8531;48.078;11.968;2023-02-11T12:27:55;8.80;;;4.38;;
16828;SDS011;8531;48.078;11.968;2023-02-11T12:33:39;9.65;;;4.38;;
16828;SDS011;8531;48.078;11.968;2023-02-11T12:44:45;7.75;;;4.40;;
16828;SDS011;8531;48.078;11.968;2023-02-11T12:50:06;8.18;;;4.78;;
16828;SDS011;8531;48.078;11.968;2023-02-11T12:55:36;13.10;;;5.00;;
16828;SDS011;8531;48.078;11.968;2023-02-11T12:58:04;10.30;;;4.95;;
16828;SDS011;8531;48.078;11.968;2023-02-11T13:03:38;9.60;;;4.55;;
16828;SDS011;8531;48.078;11.968;2023-02-11T13:06:15;14.50;;;4.80;;
16828;SDS011;8531;48.078;11.968;2023-02-11T13:08:49;12.40;;;5.05;;
16828;SDS011;8531;48.078;11.968;2023-02-11T13:22:26;8.32;;;4.35;;
16828;SDS011;8531;48.078;11.968;2023-02-11T13:28:35;9.43;;;4.13;;
16828;SDS011;8531;48.078;11.968;2023-02-11T13:30:35;8.60;;;5.13;;
16828;SDS011;8531;48.078;11.968;2023-02-11T13:33:13;8.95;;;4.68;;
16828;SDS011;8531;48.078;11.968;2023-02-11T13:35:47;15.40;;;6.15;;
16828;SDS011;8531;48.078;11.968;2023-02-11T13:38:34;12.52;;;5.90;;
16828;SDS011;8531;48.078;11.968;2023-02-11T13:41:04;7.65;;;4.93;;
16828;SDS011;8531;48.078;11.968;2023-02-11T13:44:02;10.38;;;5.28;;
16828;SDS011;8531;48.078;11.968;2023-02-11T13:49:22;8.73;;;4.88;;
16828;SDS011;8531;48.078;11.968;2023-02-11T13:51:52;9.23;;;4.88;;
16828;SDS011;8531;48.078;11.968;2023-02-11T13:54:21;6.43;;;4.05;;
16828;SDS011;8531;48.078;11.968;2023-02-11T13:59:52;6.35;;;4.25;;
16828;SDS011;8531;48.078;11.968;2023-02-11T14:02:27;8.25;;;4.93;;
16828;SDS011;8531;48.078;11.968;2023-02-11T14:11:04;7.93;;;4.45;;
16828;SDS011;8531;48.078;11.968;2023-02-11T14:16:15;6.45;;;4.40;;
16828;SDS011;8531;48.078;11.968;2023-02-11T14:23:38;11.00;;;4.57;;
16828;SDS011;8531;48.078;11.968;2023-02-11T14:28:36;6.20;;;3.75;;
16828;SDS011;8531;48.078;11.968;2023-02-11T14:41:42;8.32;;;5.28;;
16828;SDS011;8531;48.078;11.968;2023-02-11T14:44:13;8.68;;;4.38;;
16828;SDS011;8531;48.078;11.968;2023-02-11T14:46:43;9.32;;;5.32;;
16828;SDS011;8531;48.078;11.968;2023-02-11T14:49:11;10.07;;;5.85;;
16828;SDS011;8531;48.078;11.968;2023-02-11T14:51:57;10.13;;;5.07;;
16828;SDS011;8531;48.078;11.968;2023-02-11T14:54:29;10.80;;;5.70;;
16828;SDS011;8531;48.078;11.968;2023-02-11T14:59:54;7.47;;;5.07;;
16828;SDS011;8531;48.078;11.968;2023-02-11T15:02:31;12.02;;;6.15;;
16828;SDS011;8531;48.078;11.968;2023-02-11T15:05:14;8.25;;;5.45;;
16828;SDS011;8531;48.078;11.968;2023-02-11T15:07:46;9.68;;;5.97;;
16828;SDS011;8531;48.078;11.968;2023-02-11T15:10:20;10.93;;;6.18;;
16828;SDS011;8531;48.078;11.968;2023-02-11T15:12:48;9.45;;;5.75;;
16828;SDS011;8531;48.078;11.968;2023-02-11T15:15:14;9.55;;;6.15;;
16828;SDS011;8531;48.078;11.968;2023-02-11T15:17:41;10.00;;;6.25;;
16828;SDS011;8531;48.078;11.968;2023-02-11T15:20:12;8.77;;;5.55;;
16828;SDS011;8531;48.078;11.968;2023-02-11T15:22:43;12.52;;;6.57;;
16828;SDS011;8531;48.078;11.968;2023-02-11T15:25:12;12.18;;;6.88;;
16828;SDS011;8531;48.078;11.968;2023-02-11T15:27:47;11.13;;;6.28;;
16828;SDS011;8531;48.078;11.968;2023-02-11T15:32:49;14.00;;;7.22;;
16828;SDS011;8531;48.078;11.968;2023-02-11T15:35:37;12.00;;;6.78;;
16828;SDS011;8531;48.078;11.968;2023-02-11T15:38:05;12.00;;;6.43;;
16828;SDS011;8531;48.078;11.968;2023-02-11T15:40:35;12.32;;;6.95;;
16828;SDS011;8531;48.078;11.968;2023-02-11T15:43:05;19.58;;;7.57;;
16828;SDS011;8531;48.078;11.968;2023-02-11T15:50:40;13.40;;;7.28;;
16828;SDS011;8531;48.078;11.968;2023-02-11T15:55:53;14.68;;;7.40;;
16828;SDS011;8531;48.078;11.968;2023-02-11T15:58:44;9.52;;;6.55;;
16828;SDS011;8531;48.078;11.968;2023-02-11T16:01:11;12.80;;;7.55;;
16828;SDS011;8531;48.078;11.968;2023-02-11T16:03:38;10.95;;;7.05;;
16828;SDS011;8531;48.078;11.968;2023-02-11T16:06:16;13.65;;;8.15;;
16828;SDS011;8531;48.078;11.968;2023-02-11T16:09:55;24.35;;;9.65;;
16828;SDS011;8531;48.078;11.968;2023-02-11T16:11:56;22.75;;;15.35;;
16828;SDS011;8531;48.078;11.968;2023-02-11T16:16:56;15.88;;;11.10;;
16828;SDS011;8531;48.078;11.968;2023-02-11T16:19:23;17.13;;;9.07;;
16828;SDS011;8531;48.078;11.968;2023-02-11T16:21:50;17.42;;;8.88;;
16828;SDS011;8531;48.078;11.968;2023-02-11T16:24:18;17.65;;;9.52;;
16828;SDS011;8531;48.078;11.968;2023-02-11T16:26:48;14.48;;;8.05;;
16828;SDS011;8531;48.078;11.968;2023-02-11T16:29:17;14.57;;;8.45;;
16828;SDS011;8531;48.078;11.968;2023-02-11T16:32:03;34.95;;;12.05;;
16828;SDS011;8531;48.078;11.968;2023-02-11T16:34:49;16.10;;;9.18;;
16828;SDS011;8531;48.078;11.968;2023-02-11T16:37:15;14.25;;;9.35;;
16828;SDS011;8531;48.078;11.968;2023-02-11T16:39:41;18.85;;;9.45;;
16828;SDS011;8531;48.078;11.968;2023-02-11T16:42:06;19.85;;;10.15;;
16828;SDS011;8531;48.078;11.968;2023-02-11T16:44:34;17.33;;;9.73;;
16828;SDS011;8531;48.078;11.968;2023-02-11T16:47:00;18.40;;;10.45;;
16828;SDS011;8531;48.078;11.968;2023-02-11T16:49:32;18.55;;;10.25;;
16828;SDS011;8531;48.078;11.968;2023-02-11T16:52:04;22.80;;;10.82;;
16828;SDS011;8531;48.078;11.968;2023-02-11T16:54:32;19.02;;;11.32;;
16828;SDS011;8531;48.078;11.968;2023-02-11T16:56:58;22.00;;;10.27;;
16828;SDS011;8531;48.078;11.968;2023-02-11T16:59:24;18.13;;;10.00;;
16828;SDS011;8531;48.078;11.968;2023-02-11T17:01:50;18.52;;;10.55;;
16828;SDS011;8531;48.078;11.968;2023-02-11T17:04:18;15.50;;;9.88;;
16828;SDS011;8531;48.078;11.968;2023-02-11T17:06:48;18.55;;;10.55;;
16828;SDS011;8531;48.078;11.968;2023-02-11T17:09:15;18.30;;;11.15;;
16828;SDS011;8531;48.078;11.968;2023-02-11T17:11:43;17.83;;;10.70;;
16828;SDS011;8531;48.078;11.968;2023-02-11T17:14:09;32.65;;;17.60;;
16828;SDS011;8531;48.078;11.968;2023-02-11T17:16:35;33.05;;;19.35;;
16828;SDS011;8531;48.078;11.968;2023-02-11T17:19:00;29.25;;;16.90;;
16828;SDS011;8531;48.078;11.968;2023-02-11T17:21:26;67.28;;;30.40;;
16828;SDS011;8531;48.078;11.968;2023-02-11T17:23:52;32.92;;;20.73;;
16828;SDS011;8531;48.078;11.968;2023-02-11T17:26:17;38.72;;;25.33;;